sensor_id;sensor_type;location;lat;lon;timestamp;P1;durP1;ratioP1;P2;durP2;ratioP2
77012;SDS011;67260;53.130;17.982;2023-05-02T00:00:44;11.60;;;5.20;;
77012;SDS011;67260;53.130;17.982;2023-05-02T00:03:14;10.70;;;5.10;;
77012;SDS011;67260;53.130;17.982;2023-05-02T00:05:41;11.90;;;5.60;;
77012;SDS011;67260;53.130;17.982;2023-05-02T00:08:08;14.40;;;5.50;;
77012;SDS011;67260;53.130;17.982;2023-05-02T00:10:34;11.60;;;5.00;;
77012;SDS011;67260;53.130;17.982;2023-05-02T00:13:00;13.00;;;5.20;;
77012;SDS011;67260;53.130;17.982;2023-05-02T00:15:26;10.90;;;4.50;;
77012;SDS011;67260;53.130;17.982;2023-05-02T00:17:53;12.10;;;5.30;;
77012;SDS011;67260;53.130;17.982;2023-05-02T00:20:19;12.00;;;4.90;;
77012;SDS011;67260;53.130;17.982;2023-05-02T00:22:50;11.10;;;4.70;;
77012;SDS011;67260;53.130;17.982;2023-05-02T00:25:16;12.60;;;4.90;;
77012;SDS011;67260;53.130;17.982;2023-05-02T00:27:42;10.00;;;4.40;;
77012;SDS011;67260;53.130;17.982;2023-05-02T00:30:11;9.00;;;4.60;;
77012;SDS011;67260;53.130;17.982;2023-05-02T00:32:37;12.50;;;4.70;;
77012;SDS011;67260;53.130;17.982;2023-05-02T00:35:04;12.60;;;4.60;;
77012;SDS011;67260;53.130;17.982;2023-05-02T00:37:30;10.00;;;4.40;;
77012;SDS011;67260;53.130;17.982;2023-05-02T00:39:57;9.90;;;4.20;;
77012;SDS011;67260;53.130;17.982;2023-05-02T00:42:23;10.90;;;4.60;;
77012;SDS011;67260;53.130;17.982;2023-05-02T00:44:49;9.70;;;4.40;;
77012;SDS011;67260;53.130;17.982;2023-05-02T00:47:15;9.60;;;4.40;;
77012;SDS011;67260;53.130;17.982;2023-05-02T00:49:41;9.70;;;4.00;;
77012;SDS011;67260;53.130;17.982;2023-05-02T00:52:07;11.10;;;4.80;;
77012;SDS011;67260;53.130;17.982;2023-05-02T00:54:35;11.10;;;4.70;;
77012;SDS011;67260;53.130;17.982;2023-05-02T00:57:04;8.60;;;3.80;;
77012;SDS011;67260;53.130;17.982;2023-05-02T00:59:32;11.10;;;4.70;;
77012;SDS011;67260;53.130;17.982;2023-05-02T01:05:14;10.40;;;4.40;;
77012;SDS011;67260;53.130;17.982;2023-05-02T01:11:02;8.80;;;5.20;;
77012;SDS011;67260;53.130;17.982;2023-05-02T01:13:32;11.10;;;4.60;;
77012;SDS011;67260;53.130;17.982;2023-05-02T01:15:59;11.70;;;4.80;;
77012;SDS011;67260;53.130;17.982;2023-05-02T01:18:29;10.10;;;4.90;;
77012;SDS011;67260;53.130;17.982;2023-05-02T01:21:00;8.70;;;4.30;;
77012;SDS011;67260;53.130;17.982;2023-05-02T01:23:37;10.10;;;4.30;;
77012;SDS011;67260;53.130;17.982;2023-05-02T01:26:09;14.20;;;4.00;;
77012;SDS011;67260;53.130;17.982;2023-05-02T01:31:31;8.40;;;3.90;;
77012;SDS011;67260;53.130;17.982;2023-05-02T01:34:00;9.80;;;5.10;;
77012;SDS011;67260;53.130;17.982;2023-05-02T01:36:28;8.80;;;4.20;;
77012;SDS011;67260;53.130;17.982;2023-05-02T01:38:56;8.10;;;4.10;;
77012;SDS011;67260;53.130;17.982;2023-05-02T01:41:25;8.30;;;4.10;;
77012;SDS011;67260;53.130;17.982;2023-05-02T01:43:53;9.80;;;4.20;;
77012;SDS011;67260;53.130;17.982;2023-05-02T01:46:21;9.20;;;4.30;;
77012;SDS011;67260;53.130;17.982;2023-05-02T01:48:50;11.70;;;4.10;;
77012;SDS011;67260;53.130;17.982;2023-05-02T01:51:17;11.30;;;5.00;;
77012;SDS011;67260;53.130;17.982;2023-05-02T01:53:46;8.00;;;4.00;;
77012;SDS011;67260;53.130;17.982;2023-05-02T01:56:15;9.70;;;4.10;;
77012;SDS011;67260;53.130;17.982;2023-05-02T01:58:44;8.20;;;4.10;;
77012;SDS011;67260;53.130;17.982;2023-05-02T02:01:12;11.70;;;4.20;;
77012;SDS011;67260;53.130;17.982;2023-05-02T02:03:40;8.30;;;4.10;;
77012;SDS011;67260;53.130;17.982;2023-05-02T02:06:07;8.70;;;4.00;;
77012;SDS011;67260;53.130;17.982;2023-05-02T02:08:35;9.80;;;3.90;;
77012;SDS011;67260;53.130;17.982;2023-05-02T02:11:03;9.70;;;4.30;;
77012;SDS011;67260;53.130;17.982;2023-05-02T02:13:42;9.80;;;4.20;;
77012;SDS011;67260;53.130;17.982;2023-05-02T02:16:13;10.10;;;4.20;;
77012;SDS011;67260;53.130;17.982;2023-05-02T02:18:46;9.70;;;4.70;;
77012;SDS011;67260;53.130;17.982;2023-05-02T02:21:12;11.10;;;4.60;;
77012;SDS011;67260;53.130;17.982;2023-05-02T02:23:43;7.60;;;4.00;;
77012;SDS011;67260;53.130;17.982;2023-05-02T02:26:13;9.60;;;4.20;;
77012;SDS011;67260;53.130;17.982;2023-05-02T02:28:40;9.80;;;4.20;;
77012;SDS011;67260;53.130;17.982;2023-05-02T02:31:07;7.70;;;3.90;;
77012;SDS011;67260;53.130;17.982;2023-05-02T02:33:33;8.30;;;4.30;;
77012;SDS011;67260;53.130;17.982;2023-05-02T02:36:03;12.60;;;4.40;;
77012;SDS011;67260;53.130;17.982;2023-05-02T02:39:33;9.70;;;4.30;;
77012;SDS011;67260;53.130;17.982;2023-05-02T02:47:39;14.10;;;4.60;;
77012;SDS011;67260;53.130;17.982;2023-05-02T02:53:04;10.80;;;4.80;;
77012;SDS011;67260;53.130;17.982;2023-05-02T02:55:52;14.50;;;6.00;;
77012;SDS011;67260;53.130;17.982;2023-05-02T02:58:30;12.70;;;5.50;;
77012;SDS011;67260;53.130;17.982;2023-05-02T03:01:02;10.20;;;5.00;;
77012;SDS011;67260;53.130;17.982;2023-05-02T03:03:31;10.70;;;5.00;;
77012;SDS011;67260;53.130;17.982;2023-05-02T03:05:58;11.30;;;5.50;;
77012;SDS011;67260;53.130;17.982;2023-05-02T03:08:24;10.90;;;5.20;;
77012;SDS011;67260;53.130;17.982;2023-05-02T03:10:52;12.90;;;4.90;;
77012;SDS011;67260;53.130;17.982;2023-05-02T03:13:18;9.50;;;5.00;;
77012;SDS011;67260;53.130;17.982;2023-05-02T03:18:17;22.30;;;14.00;;
77012;SDS011;67260;53.130;17.982;2023-05-02T03:20:44;20.60;;;12.20;;
77012;SDS011;67260;53.130;17.982;2023-05-02T03:23:10;21.00;;;11.50;;
77012;SDS011;67260;53.130;17.982;2023-05-02T03:25:36;17.70;;;9.60;;
77012;SDS011;67260;53.130;17.982;2023-05-02T03:28:04;18.90;;;10.60;;
77012;SDS011;67260;53.130;17.982;2023-05-02T03:30:30;15.20;;;8.00;;
77012;SDS011;67260;53.130;17.982;2023-05-02T03:32:57;14.40;;;7.20;;
77012;SDS011;67260;53.130;17.982;2023-05-02T03:35:24;14.30;;;5.90;;
77012;SDS011;67260;53.130;17.982;2023-05-02T03:40:17;19.80;;;8.90;;
77012;SDS011;67260;53.130;17.982;2023-05-02T03:42:46;12.50;;;5.80;;
77012;SDS011;67260;53.130;17.982;2023-05-02T03:45:19;10.50;;;5.10;;
77012;SDS011;67260;53.130;17.982;2023-05-02T03:47:45;12.40;;;5.90;;
77012;SDS011;67260;53.130;17.982;2023-05-02T03:50:11;12.20;;;5.50;;
77012;SDS011;67260;53.130;17.982;2023-05-02T03:52:39;9.80;;;4.90;;
77012;SDS011;67260;53.130;17.982;2023-05-02T03:55:05;9.30;;;4.90;;
77012;SDS011;67260;53.130;17.982;2023-05-02T03:57:33;12.80;;;6.00;;
77012;SDS011;67260;53.130;17.982;2023-05-02T03:59:59;13.40;;;6.30;;
77012;SDS011;67260;53.130;17.982;2023-05-02T04:02:27;14.10;;;5.80;;
77012;SDS011;67260;53.130;17.982;2023-05-02T04:04:56;13.20;;;6.60;;
77012;SDS011;67260;53.130;17.982;2023-05-02T04:07:22;13.60;;;6.00;;
77012;SDS011;67260;53.130;17.982;2023-05-02T04:09:58;12.40;;;6.20;;
77012;SDS011;67260;53.130;17.982;2023-05-02T04:12:25;11.40;;;5.40;;
77012;SDS011;67260;53.130;17.982;2023-05-02T04:14:54;10.20;;;4.80;;
77012;SDS011;67260;53.130;17.982;2023-05-02T04:17:24;11.50;;;5.10;;
77012;SDS011;67260;53.130;17.982;2023-05-02T04:19:50;9.70;;;4.90;;
77012;SDS011;67260;53.130;17.982;2023-05-02T04:22:20;10.30;;;5.20;;
77012;SDS011;67260;53.130;17.982;2023-05-02T04:24:50;9.60;;;5.20;;
77012;SDS011;67260;53.130;17.982;2023-05-02T04:27:20;13.50;;;6.10;;
77012;SDS011;67260;53.130;17.982;2023-05-02T04:29:47;11.40;;;5.70;;
77012;SDS011;67260;53.130;17.982;2023-05-02T04:32:18;13.30;;;6.40;;
77012;SDS011;67260;53.130;17.982;2023-05-02T04:34:45;15.50;;;6.00;;
77012;SDS011;67260;53.130;17.982;2023-05-02T04:37:12;10.80;;;5.40;;
77012;SDS011;67260;53.130;17.982;2023-05-02T04:39:39;14.70;;;5.40;;
77012;SDS011;67260;53.130;17.982;2023-05-02T04:42:10;17.30;;;5.50;;
77012;SDS011;67260;53.130;17.982;2023-05-02T04:44:42;13.20;;;5.80;;
77012;SDS011;67260;53.130;17.982;2023-05-02T04:47:08;10.30;;;4.90;;
77012;SDS011;67260;53.130;17.982;2023-05-02T04:49:34;13.00;;;5.00;;
77012;SDS011;67260;53.130;17.982;2023-05-02T04:52:01;14.00;;;5.20;;
77012;SDS011;67260;53.130;17.982;2023-05-02T04:54:27;12.90;;;5.90;;
77012;SDS011;67260;53.130;17.982;2023-05-02T04:56:53;17.80;;;6.40;;
77012;SDS011;67260;53.130;17.982;2023-05-02T04:59:20;12.60;;;6.10;;
77012;SDS011;67260;53.130;17.982;2023-05-02T05:01:47;11.40;;;5.90;;
77012;SDS011;67260;53.130;17.982;2023-05-02T05:04:13;10.60;;;6.30;;
77012;SDS011;67260;53.130;17.982;2023-05-02T05:09:07;10.60;;;5.70;;
77012;SDS011;67260;53.130;17.982;2023-05-02T05:11:34;12.70;;;5.50;;
77012;SDS011;67260;53.130;17.982;2023-05-02T05:14:01;11.30;;;6.00;;
77012;SDS011;67260;53.130;17.982;2023-05-02T05:16:30;11.90;;;6.70;;
77012;SDS011;67260;53.130;17.982;2023-05-02T05:18:56;15.10;;;7.30;;
77012;SDS011;67260;53.130;17.982;2023-05-02T05:21:22;12.80;;;7.00;;
77012;SDS011;67260;53.130;17.982;2023-05-02T05:23:50;16.30;;;7.70;;
77012;SDS011;67260;53.130;17.982;2023-05-02T05:26:22;14.80;;;7.80;;
77012;SDS011;67260;53.130;17.982;2023-05-02T05:28:50;17.80;;;9.80;;
77012;SDS011;67260;53.130;17.982;2023-05-02T05:31:18;17.00;;;9.00;;
77012;SDS011;67260;53.130;17.982;2023-05-02T05:33:50;12.20;;;7.80;;
77012;SDS011;67260;53.130;17.982;2023-05-02T05:36:17;15.70;;;7.50;;
77012;SDS011;67260;53.130;17.982;2023-05-02T05:38:43;13.90;;;7.40;;
77012;SDS011;67260;53.130;17.982;2023-05-02T05:41:11;13.80;;;7.80;;
77012;SDS011;67260;53.130;17.982;2023-05-02T05:43:41;16.80;;;7.70;;
77012;SDS011;67260;53.130;17.982;2023-05-02T05:46:07;15.50;;;7.80;;
77012;SDS011;67260;53.130;17.982;2023-05-02T05:48:35;12.90;;;6.90;;
77012;SDS011;67260;53.130;17.982;2023-05-02T05:51:04;15.20;;;8.10;;
77012;SDS011;67260;53.130;17.982;2023-05-02T05:53:31;15.00;;;7.40;;
77012;SDS011;67260;53.130;17.982;2023-05-02T05:55:57;10.90;;;6.70;;
77012;SDS011;67260;53.130;17.982;2023-05-02T05:58:24;13.20;;;7.20;;
77012;SDS011;67260;53.130;17.982;2023-05-02T06:00:52;14.80;;;7.60;;
77012;SDS011;67260;53.130;17.982;2023-05-02T06:03:18;14.10;;;7.50;;
77012;SDS011;67260;53.130;17.982;2023-05-02T06:08:10;13.40;;;6.70;;
77012;SDS011;67260;53.130;17.982;2023-05-02T06:10:36;13.10;;;7.00;;
77012;SDS011;67260;53.130;17.982;2023-05-02T06:13:02;13.60;;;7.20;;
77012;SDS011;67260;53.130;17.982;2023-05-02T06:15:33;15.00;;;7.10;;
77012;SDS011;67260;53.130;17.982;2023-05-02T06:18:01;12.50;;;7.80;;
77012;SDS011;67260;53.130;17.982;2023-05-02T06:20:27;13.00;;;7.90;;
77012;SDS011;67260;53.130;17.982;2023-05-02T06:22:53;14.00;;;7.50;;
77012;SDS011;67260;53.130;17.982;2023-05-02T06:25:19;12.30;;;6.70;;
77012;SDS011;67260;53.130;17.982;2023-05-02T06:27:45;14.00;;;6.60;;
77012;SDS011;67260;53.130;17.982;2023-05-02T06:30:11;13.60;;;6.70;;
77012;SDS011;67260;53.130;17.982;2023-05-02T06:32:37;12.00;;;6.50;;
77012;SDS011;67260;53.130;17.982;2023-05-02T06:35:03;13.50;;;7.20;;
77012;SDS011;67260;53.130;17.982;2023-05-02T06:37:32;15.30;;;7.90;;
77012;SDS011;67260;53.130;17.982;2023-05-02T06:40:00;16.10;;;6.90;;
77012;SDS011;67260;53.130;17.982;2023-05-02T06:42:27;13.20;;;6.70;;
77012;SDS011;67260;53.130;17.982;2023-05-02T06:44:54;12.10;;;6.30;;
77012;SDS011;67260;53.130;17.982;2023-05-02T06:47:20;15.20;;;6.60;;
77012;SDS011;67260;53.130;17.982;2023-05-02T06:49:51;14.80;;;7.70;;
77012;SDS011;67260;53.130;17.982;2023-05-02T06:52:18;17.70;;;8.80;;
77012;SDS011;67260;53.130;17.982;2023-05-02T06:57:10;14.90;;;7.50;;
77012;SDS011;67260;53.130;17.982;2023-05-02T06:59:37;14.50;;;7.00;;
77012;SDS011;67260;53.130;17.982;2023-05-02T07:02:03;17.70;;;7.80;;
77012;SDS011;67260;53.130;17.982;2023-05-02T07:04:29;13.50;;;7.10;;
77012;SDS011;67260;53.130;17.982;2023-05-02T07:06:55;13.40;;;6.80;;
77012;SDS011;67260;53.130;17.982;2023-05-02T07:09:21;13.60;;;6.90;;
77012;SDS011;67260;53.130;17.982;2023-05-02T07:11:47;12.90;;;7.00;;
77012;SDS011;67260;53.130;17.982;2023-05-02T07:14:13;49.60;;;28.50;;
77012;SDS011;67260;53.130;17.982;2023-05-02T07:16:39;40.90;;;23.20;;
77012;SDS011;67260;53.130;17.982;2023-05-02T07:19:06;37.30;;;19.10;;
77012;SDS011;67260;53.130;17.982;2023-05-02T07:21:32;26.90;;;15.80;;
77012;SDS011;67260;53.130;17.982;2023-05-02T07:23:58;15.40;;;8.50;;
77012;SDS011;67260;53.130;17.982;2023-05-02T07:26:24;18.40;;;9.50;;
77012;SDS011;67260;53.130;17.982;2023-05-02T07:28:52;14.40;;;8.20;;
77012;SDS011;67260;53.130;17.982;2023-05-02T07:31:18;13.40;;;7.90;;
77012;SDS011;67260;53.130;17.982;2023-05-02T07:33:44;11.70;;;7.40;;
77012;SDS011;67260;53.130;17.982;2023-05-02T07:36:10;14.40;;;6.70;;
77012;SDS011;67260;53.130;17.982;2023-05-02T07:41:03;13.80;;;6.40;;
77012;SDS011;67260;53.130;17.982;2023-05-02T07:43:29;12.60;;;7.00;;
77012;SDS011;67260;53.130;17.982;2023-05-02T07:48:21;13.10;;;7.30;;
77012;SDS011;67260;53.130;17.982;2023-05-02T07:53:14;11.90;;;6.40;;
77012;SDS011;67260;53.130;17.982;2023-05-02T07:58:05;14.60;;;6.30;;
77012;SDS011;67260;53.130;17.982;2023-05-02T08:00:31;11.40;;;5.70;;
77012;SDS011;67260;53.130;17.982;2023-05-02T08:02:58;11.20;;;6.00;;
77012;SDS011;67260;53.130;17.982;2023-05-02T08:05:24;8.20;;;4.80;;
77012;SDS011;67260;53.130;17.982;2023-05-02T08:07:50;8.00;;;5.40;;
77012;SDS011;67260;53.130;17.982;2023-05-02T08:10:16;7.50;;;4.60;;
77012;SDS011;67260;53.130;17.982;2023-05-02T08:12:42;7.00;;;4.70;;
77012;SDS011;67260;53.130;17.982;2023-05-02T08:15:09;9.30;;;5.10;;
77012;SDS011;67260;53.130;17.982;2023-05-02T08:17:45;8.80;;;5.70;;
77012;SDS011;67260;53.130;17.982;2023-05-02T08:20:11;6.90;;;4.40;;
77012;SDS011;67260;53.130;17.982;2023-05-02T08:22:39;8.30;;;4.30;;
77012;SDS011;67260;53.130;17.982;2023-05-02T08:25:05;5.80;;;4.00;;
77012;SDS011;67260;53.130;17.982;2023-05-02T08:27:31;8.10;;;3.40;;
77012;SDS011;67260;53.130;17.982;2023-05-02T08:29:59;5.70;;;3.00;;
77012;SDS011;67260;53.130;17.982;2023-05-02T08:32:26;4.50;;;2.40;;
77012;SDS011;67260;53.130;17.982;2023-05-02T08:34:54;5.90;;;2.10;;
77012;SDS011;67260;53.130;17.982;2023-05-02T08:37:21;4.90;;;2.10;;
77012;SDS011;67260;53.130;17.982;2023-05-02T08:39:47;4.70;;;2.00;;
77012;SDS011;67260;53.130;17.982;2023-05-02T08:42:13;3.50;;;2.00;;
77012;SDS011;67260;53.130;17.982;2023-05-02T08:44:40;3.60;;;1.70;;
77012;SDS011;67260;53.130;17.982;2023-05-02T08:47:06;4.40;;;1.80;;
77012;SDS011;67260;53.130;17.982;2023-05-02T08:49:35;4.30;;;1.40;;
77012;SDS011;67260;53.130;17.982;2023-05-02T08:52:03;4.40;;;1.80;;
77012;SDS011;67260;53.130;17.982;2023-05-02T08:54:29;3.50;;;2.10;;
77012;SDS011;67260;53.130;17.982;2023-05-02T08:56:56;4.70;;;2.30;;
77012;SDS011;67260;53.130;17.982;2023-05-02T08:59:24;4.60;;;2.40;;
77012;SDS011;67260;53.130;17.982;2023-05-02T09:01:51;5.90;;;2.50;;
77012;SDS011;67260;53.130;17.982;2023-05-02T09:04:24;4.20;;;2.30;;
77012;SDS011;67260;53.130;17.982;2023-05-02T09:06:57;5.00;;;2.60;;
77012;SDS011;67260;53.130;17.982;2023-05-02T09:09:24;10.70;;;6.60;;
77012;SDS011;67260;53.130;17.982;2023-05-02T09:11:50;5.80;;;2.90;;
77012;SDS011;67260;53.130;17.982;2023-05-02T09:14:17;6.00;;;4.00;;
77012;SDS011;67260;53.130;17.982;2023-05-02T09:16:43;5.90;;;4.00;;
77012;SDS011;67260;53.130;17.982;2023-05-02T09:19:09;6.30;;;2.80;;
77012;SDS011;67260;53.130;17.982;2023-05-02T09:21:36;6.80;;;2.70;;
77012;SDS011;67260;53.130;17.982;2023-05-02T09:24:16;5.10;;;2.70;;
77012;SDS011;67260;53.130;17.982;2023-05-02T09:27:03;5.80;;;2.60;;
77012;SDS011;67260;53.130;17.982;2023-05-02T09:29:31;7.00;;;2.40;;
77012;SDS011;67260;53.130;17.982;2023-05-02T09:32:04;6.60;;;2.90;;
77012;SDS011;67260;53.130;17.982;2023-05-02T09:34:31;6.00;;;2.40;;
77012;SDS011;67260;53.130;17.982;2023-05-02T09:36:59;5.50;;;2.50;;
77012;SDS011;67260;53.130;17.982;2023-05-02T09:39:26;4.70;;;2.50;;
77012;SDS011;67260;53.130;17.982;2023-05-02T09:41:53;5.20;;;2.50;;
77012;SDS011;67260;53.130;17.982;2023-05-02T09:44:21;6.40;;;2.60;;
77012;SDS011;67260;53.130;17.982;2023-05-02T09:46:54;4.90;;;2.40;;
77012;SDS011;67260;53.130;17.982;2023-05-02T09:49:38;5.30;;;2.50;;
77012;SDS011;67260;53.130;17.982;2023-05-02T09:52:12;5.50;;;2.70;;
77012;SDS011;67260;53.130;17.982;2023-05-02T09:54:40;4.60;;;2.10;;
77012;SDS011;67260;53.130;17.982;2023-05-02T09:57:06;4.80;;;2.50;;
77012;SDS011;67260;53.130;17.982;2023-05-02T09:59:35;6.20;;;2.10;;
77012;SDS011;67260;53.130;17.982;2023-05-02T10:02:02;5.40;;;2.20;;
77012;SDS011;67260;53.130;17.982;2023-05-02T10:04:30;5.60;;;2.40;;
77012;SDS011;67260;53.130;17.982;2023-05-02T10:06:59;6.00;;;2.20;;
77012;SDS011;67260;53.130;17.982;2023-05-02T10:09:28;4.90;;;2.00;;
77012;SDS011;67260;53.130;17.982;2023-05-02T10:11:57;5.00;;;1.90;;
77012;SDS011;67260;53.130;17.982;2023-05-02T10:14:33;4.40;;;1.90;;
77012;SDS011;67260;53.130;17.982;2023-05-02T10:17:07;4.60;;;1.70;;
77012;SDS011;67260;53.130;17.982;2023-05-02T10:22:19;6.20;;;2.00;;
77012;SDS011;67260;53.130;17.982;2023-05-02T10:24:49;5.00;;;2.00;;
77012;SDS011;67260;53.130;17.982;2023-05-02T10:27:17;4.20;;;1.80;;
77012;SDS011;67260;53.130;17.982;2023-05-02T10:29:43;3.90;;;1.90;;
77012;SDS011;67260;53.130;17.982;2023-05-02T10:32:12;5.00;;;2.20;;
77012;SDS011;67260;53.130;17.982;2023-05-02T10:34:45;7.30;;;1.80;;
77012;SDS011;67260;53.130;17.982;2023-05-02T10:37:12;3.90;;;2.10;;
77012;SDS011;67260;53.130;17.982;2023-05-02T10:39:38;4.30;;;1.90;;
77012;SDS011;67260;53.130;17.982;2023-05-02T10:42:05;6.80;;;2.50;;
77012;SDS011;67260;53.130;17.982;2023-05-02T10:44:35;5.30;;;2.50;;
77012;SDS011;67260;53.130;17.982;2023-05-02T10:47:23;5.20;;;2.50;;
77012;SDS011;67260;53.130;17.982;2023-05-02T10:49:58;6.00;;;2.80;;
77012;SDS011;67260;53.130;17.982;2023-05-02T10:52:29;7.60;;;2.70;;
77012;SDS011;67260;53.130;17.982;2023-05-02T10:55:18;7.80;;;2.80;;
77012;SDS011;67260;53.130;17.982;2023-05-02T11:00:27;8.00;;;2.60;;
77012;SDS011;67260;53.130;17.982;2023-05-02T11:02:54;6.20;;;2.70;;
77012;SDS011;67260;53.130;17.982;2023-05-02T11:05:20;6.30;;;2.70;;
77012;SDS011;67260;53.130;17.982;2023-05-02T11:07:48;7.40;;;2.50;;
77012;SDS011;67260;53.130;17.982;2023-05-02T11:12:45;8.70;;;2.70;;
77012;SDS011;67260;53.130;17.982;2023-05-02T11:15:13;4.90;;;2.40;;
77012;SDS011;67260;53.130;17.982;2023-05-02T11:20:28;6.00;;;2.60;;
77012;SDS011;67260;53.130;17.982;2023-05-02T11:22:56;5.80;;;2.70;;
77012;SDS011;67260;53.130;17.982;2023-05-02T11:25:40;6.70;;;2.70;;
77012;SDS011;67260;53.130;17.982;2023-05-02T11:28:37;8.40;;;3.00;;
77012;SDS011;67260;53.130;17.982;2023-05-02T11:31:51;8.30;;;2.90;;
77012;SDS011;67260;53.130;17.982;2023-05-02T11:33:58;5.50;;;2.30;;
77012;SDS011;67260;53.130;17.982;2023-05-02T11:36:29;5.40;;;2.40;;
77012;SDS011;67260;53.130;17.982;2023-05-02T11:39:01;6.70;;;2.70;;
77012;SDS011;67260;53.130;17.982;2023-05-02T11:44:09;5.60;;;2.90;;
77012;SDS011;67260;53.130;17.982;2023-05-02T11:46:35;6.60;;;2.20;;
77012;SDS011;67260;53.130;17.982;2023-05-02T11:49:03;4.60;;;2.30;;
77012;SDS011;67260;53.130;17.982;2023-05-02T11:51:33;5.20;;;2.50;;
77012;SDS011;67260;53.130;17.982;2023-05-02T11:54:00;5.60;;;2.30;;
77012;SDS011;67260;53.130;17.982;2023-05-02T11:56:26;7.20;;;2.20;;
77012;SDS011;67260;53.130;17.982;2023-05-02T11:59:02;6.80;;;2.40;;
77012;SDS011;67260;53.130;17.982;2023-05-02T12:01:29;5.50;;;2.20;;
77012;SDS011;67260;53.130;17.982;2023-05-02T12:04:05;5.30;;;2.50;;
77012;SDS011;67260;53.130;17.982;2023-05-02T12:06:32;4.40;;;2.20;;
77012;SDS011;67260;53.130;17.982;2023-05-02T12:09:05;5.80;;;2.00;;
77012;SDS011;67260;53.130;17.982;2023-05-02T12:11:54;4.70;;;2.20;;
77012;SDS011;67260;53.130;17.982;2023-05-02T12:14:25;5.50;;;2.10;;
77012;SDS011;67260;53.130;17.982;2023-05-02T12:16:56;4.60;;;2.10;;
77012;SDS011;67260;53.130;17.982;2023-05-02T12:19:23;5.90;;;2.10;;
77012;SDS011;67260;53.130;17.982;2023-05-02T12:21:49;5.50;;;2.00;;
77012;SDS011;67260;53.130;17.982;2023-05-02T12:24:19;5.20;;;1.70;;
77012;SDS011;67260;53.130;17.982;2023-05-02T12:26:46;6.60;;;2.00;;
77012;SDS011;67260;53.130;17.982;2023-05-02T12:29:12;6.30;;;2.30;;
77012;SDS011;67260;53.130;17.982;2023-05-02T12:31:38;5.40;;;2.80;;
77012;SDS011;67260;53.130;17.982;2023-05-02T12:34:04;7.40;;;3.30;;
77012;SDS011;67260;53.130;17.982;2023-05-02T12:36:30;7.20;;;4.00;;
77012;SDS011;67260;53.130;17.982;2023-05-02T12:38:58;7.00;;;4.10;;
77012;SDS011;67260;53.130;17.982;2023-05-02T12:41:32;8.50;;;5.20;;
77012;SDS011;67260;53.130;17.982;2023-05-02T12:43:58;5.40;;;3.50;;
77012;SDS011;67260;53.130;17.982;2023-05-02T12:46:25;9.00;;;4.00;;
77012;SDS011;67260;53.130;17.982;2023-05-02T12:49:17;8.80;;;4.10;;
77012;SDS011;67260;53.130;17.982;2023-05-02T12:51:51;8.40;;;4.10;;
77012;SDS011;67260;53.130;17.982;2023-05-02T12:54:19;8.40;;;4.40;;
77012;SDS011;67260;53.130;17.982;2023-05-02T12:56:47;7.40;;;4.00;;
77012;SDS011;67260;53.130;17.982;2023-05-02T13:01:55;10.90;;;4.50;;
77012;SDS011;67260;53.130;17.982;2023-05-02T13:04:35;8.00;;;4.00;;
77012;SDS011;67260;53.130;17.982;2023-05-02T13:07:06;7.20;;;4.20;;
77012;SDS011;67260;53.130;17.982;2023-05-02T13:09:33;7.10;;;4.40;;
77012;SDS011;67260;53.130;17.982;2023-05-02T13:11:59;7.10;;;3.60;;
77012;SDS011;67260;53.130;17.982;2023-05-02T13:14:25;9.30;;;4.10;;
77012;SDS011;67260;53.130;17.982;2023-05-02T13:16:51;5.40;;;3.80;;
77012;SDS011;67260;53.130;17.982;2023-05-02T13:19:19;6.80;;;3.90;;
77012;SDS011;67260;53.130;17.982;2023-05-02T13:21:46;7.60;;;4.00;;
77012;SDS011;67260;53.130;17.982;2023-05-02T13:24:13;6.60;;;4.00;;
77012;SDS011;67260;53.130;17.982;2023-05-02T13:26:42;8.90;;;3.90;;
77012;SDS011;67260;53.130;17.982;2023-05-02T13:29:10;6.50;;;3.90;;
77012;SDS011;67260;53.130;17.982;2023-05-02T13:31:37;7.90;;;3.60;;
77012;SDS011;67260;53.130;17.982;2023-05-02T13:34:03;6.90;;;3.90;;
77012;SDS011;67260;53.130;17.982;2023-05-02T13:36:30;5.70;;;4.20;;
77012;SDS011;67260;53.130;17.982;2023-05-02T13:38:56;6.30;;;3.70;;
77012;SDS011;67260;53.130;17.982;2023-05-02T13:41:22;5.40;;;3.30;;
77012;SDS011;67260;53.130;17.982;2023-05-02T13:43:49;7.20;;;3.70;;
77012;SDS011;67260;53.130;17.982;2023-05-02T13:46:15;5.70;;;3.50;;
77012;SDS011;67260;53.130;17.982;2023-05-02T13:48:49;7.50;;;3.30;;
77012;SDS011;67260;53.130;17.982;2023-05-02T13:51:16;4.50;;;2.80;;
77012;SDS011;67260;53.130;17.982;2023-05-02T13:53:43;7.20;;;3.20;;
77012;SDS011;67260;53.130;17.982;2023-05-02T13:56:10;5.10;;;3.10;;
77012;SDS011;67260;53.130;17.982;2023-05-02T13:58:36;5.60;;;3.00;;
77012;SDS011;67260;53.130;17.982;2023-05-02T14:01:02;5.70;;;2.50;;
77012;SDS011;67260;53.130;17.982;2023-05-02T14:03:29;5.60;;;2.70;;
77012;SDS011;67260;53.130;17.982;2023-05-02T14:08:21;6.50;;;3.20;;
77012;SDS011;67260;53.130;17.982;2023-05-02T14:10:47;5.40;;;2.90;;
77012;SDS011;67260;53.130;17.982;2023-05-02T14:13:16;5.50;;;2.90;;
77012;SDS011;67260;53.130;17.982;2023-05-02T14:15:42;4.40;;;2.50;;
77012;SDS011;67260;53.130;17.982;2023-05-02T14:18:08;4.20;;;2.40;;
77012;SDS011;67260;53.130;17.982;2023-05-02T14:20:34;5.30;;;2.40;;
77012;SDS011;67260;53.130;17.982;2023-05-02T14:25:26;4.50;;;2.00;;
77012;SDS011;67260;53.130;17.982;2023-05-02T14:27:52;5.00;;;2.00;;
77012;SDS011;67260;53.130;17.982;2023-05-02T14:32:44;4.00;;;1.90;;
77012;SDS011;67260;53.130;17.982;2023-05-02T14:35:11;3.70;;;1.90;;
77012;SDS011;67260;53.130;17.982;2023-05-02T14:37:37;3.00;;;1.60;;
77012;SDS011;67260;53.130;17.982;2023-05-02T14:40:04;4.10;;;1.80;;
77012;SDS011;67260;53.130;17.982;2023-05-02T14:42:31;3.20;;;1.70;;
77012;SDS011;67260;53.130;17.982;2023-05-02T14:47:23;3.80;;;1.40;;
77012;SDS011;67260;53.130;17.982;2023-05-02T14:49:59;4.00;;;1.50;;
77012;SDS011;67260;53.130;17.982;2023-05-02T14:52:26;3.30;;;1.50;;
77012;SDS011;67260;53.130;17.982;2023-05-02T14:54:52;4.60;;;1.70;;
77012;SDS011;67260;53.130;17.982;2023-05-02T14:57:18;4.70;;;1.70;;
77012;SDS011;67260;53.130;17.982;2023-05-02T14:59:45;3.70;;;1.40;;
77012;SDS011;67260;53.130;17.982;2023-05-02T15:02:11;4.60;;;2.10;;
77012;SDS011;67260;53.130;17.982;2023-05-02T15:04:37;3.80;;;1.60;;
77012;SDS011;67260;53.130;17.982;2023-05-02T15:07:03;3.90;;;1.90;;
77012;SDS011;67260;53.130;17.982;2023-05-02T15:09:29;3.60;;;1.60;;
77012;SDS011;67260;53.130;17.982;2023-05-02T15:14:23;4.80;;;1.60;;
77012;SDS011;67260;53.130;17.982;2023-05-02T15:16:49;3.20;;;1.70;;
77012;SDS011;67260;53.130;17.982;2023-05-02T15:19:15;4.10;;;1.20;;
77012;SDS011;67260;53.130;17.982;2023-05-02T15:24:07;5.70;;;1.30;;
77012;SDS011;67260;53.130;17.982;2023-05-02T15:26:33;3.50;;;1.60;;
77012;SDS011;67260;53.130;17.982;2023-05-02T15:29:00;3.40;;;1.60;;
77012;SDS011;67260;53.130;17.982;2023-05-02T15:31:26;2.90;;;1.60;;
77012;SDS011;67260;53.130;17.982;2023-05-02T15:33:53;4.00;;;1.50;;
77012;SDS011;67260;53.130;17.982;2023-05-02T15:36:19;4.10;;;1.80;;
77012;SDS011;67260;53.130;17.982;2023-05-02T15:38:44;3.30;;;1.80;;
77012;SDS011;67260;53.130;17.982;2023-05-02T15:41:10;4.60;;;2.20;;
77012;SDS011;67260;53.130;17.982;2023-05-02T15:43:36;5.30;;;1.90;;
77012;SDS011;67260;53.130;17.982;2023-05-02T15:46:02;4.20;;;1.90;;